sensor_id;sensor_type;location;lat;lon;timestamp;pressure;altitude;pressure_sealevel;temperature;humidity
45621;BME280;31345;51.522;10.702;2022-08-11T00:00:32;99893.06;;;14.30;83.52
45621;BME280;31345;51.522;10.702;2022-08-11T00:03:04;99890.00;;;14.62;81.99
45621;BME280;31345;51.522;10.702;2022-08-11T00:05:41;99891.66;;;14.50;82.19
45621;BME280;31345;51.522;10.702;2022-08-11T00:08:10;99886.81;;;14.57;81.60
45621;BME280;31345;51.522;10.702;2022-08-11T00:10:39;99888.63;;;14.44;82.20
45621;BME280;31345;51.522;10.702;2022-08-11T00:13:07;99892.81;;;14.33;82.96
45621;BME280;31345;51.522;10.702;2022-08-11T00:15:40;99888.00;;;14.40;81.67
45621;BME280;31345;51.522;10.702;2022-08-11T00:18:09;99892.63;;;14.23;82.10
45621;BME280;31345;51.522;10.702;2022-08-11T00:20:40;99892.00;;;14.33;81.69
45621;BME280;31345;51.522;10.702;2022-08-11T00:23:10;99891.03;;;13.95;84.57
45621;BME280;31345;51.522;10.702;2022-08-11T00:25:41;99890.38;;;13.78;85.87
45621;BME280;31345;51.522;10.702;2022-08-11T00:28:23;99884.94;;;13.94;85.85
45621;BME280;31345;51.522;10.702;2022-08-11T00:30:52;99880.84;;;14.03;85.44
45621;BME280;31345;51.522;10.702;2022-08-11T00:33:22;99884.53;;;14.00;85.31
45621;BME280;31345;51.522;10.702;2022-08-11T00:35:56;99885.81;;;14.08;84.54
45621;BME280;31345;51.522;10.702;2022-08-11T00:38:29;99879.88;;;13.91;84.49
45621;BME280;31345;51.522;10.702;2022-08-11T00:41:05;99884.50;;;14.13;83.94
45621;BME280;31345;51.522;10.702;2022-08-11T00:43:55;99879.03;;;13.78;86.21
45621;BME280;31345;51.522;10.702;2022-08-11T00:46:31;99876.41;;;13.91;85.14
45621;BME280;31345;51.522;10.702;2022-08-11T00:49:12;99881.16;;;14.11;84.07
45621;BME280;31345;51.522;10.702;2022-08-11T00:51:57;99877.19;;;14.19;83.74
45621;BME280;31345;51.522;10.702;2022-08-11T00:54:46;99878.53;;;14.11;83.73
45621;BME280;31345;51.522;10.702;2022-08-11T01:00:18;99882.28;;;13.54;86.64
45621;BME280;31345;51.522;10.702;2022-08-11T01:03:15;99878.06;;;13.79;85.60
45621;BME280;31345;51.522;10.702;2022-08-11T01:06:02;99882.41;;;13.80;87.46
45621;BME280;31345;51.522;10.702;2022-08-11T01:08:45;99881.41;;;13.68;85.97
45621;BME280;31345;51.522;10.702;2022-08-11T01:11:38;99878.19;;;13.90;85.82
45621;BME280;31345;51.522;10.702;2022-08-11T01:17:47;99875.44;;;13.66;85.32
45621;BME280;31345;51.522;10.702;2022-08-11T01:23:59;99881.13;;;13.72;85.26
45621;BME280;31345;51.522;10.702;2022-08-11T01:27:14;99872.31;;;13.86;84.45
45621;BME280;31345;51.522;10.702;2022-08-11T01:33:37;99879.22;;;13.47;86.58
45621;BME280;31345;51.522;10.702;2022-08-11T01:36:49;99883.81;;;13.30;87.54
45621;BME280;31345;51.522;10.702;2022-08-11T01:45:45;99875.94;;;13.58;87.71
45621;BME280;31345;51.522;10.702;2022-08-11T01:48:21;99878.22;;;13.35;87.63
45621;BME280;31345;51.522;10.702;2022-08-11T01:51:07;99877.56;;;13.46;87.03
45621;BME280;31345;51.522;10.702;2022-08-11T01:53:50;99875.50;;;13.36;87.59
45621;BME280;31345;51.522;10.702;2022-08-11T01:56:32;99878.78;;;13.40;87.77
45621;BME280;31345;51.522;10.702;2022-08-11T01:59:10;99879.75;;;13.67;86.29
45621;BME280;31345;51.522;10.702;2022-08-11T02:01:57;99880.84;;;13.35;88.18
45621;BME280;31345;51.522;10.702;2022-08-11T02:04:32;99882.50;;;13.50;87.35
45621;BME280;31345;51.522;10.702;2022-08-11T02:07:07;99886.06;;;13.49;87.03
45621;BME280;31345;51.522;10.702;2022-08-11T02:09:48;99885.13;;;13.23;88.72
45621;BME280;31345;51.522;10.702;2022-08-11T02:12:36;99881.44;;;13.53;87.61
45621;BME280;31345;51.522;10.702;2022-08-11T02:15:14;99879.75;;;13.52;87.12
45621;BME280;31345;51.522;10.702;2022-08-11T02:17:55;99878.78;;;13.40;87.19
45621;BME280;31345;51.522;10.702;2022-08-11T02:20:30;99882.31;;;13.26;88.05
45621;BME280;31345;51.522;10.702;2022-08-11T02:23:26;99878.34;;;12.91;91.50
45621;BME280;31345;51.522;10.702;2022-08-11T02:26:17;99879.59;;;13.28;87.94
45621;BME280;31345;51.522;10.702;2022-08-11T02:28:54;99869.06;;;13.55;85.40
45621;BME280;31345;51.522;10.702;2022-08-11T02:31:38;99865.34;;;13.45;85.68
45621;BME280;31345;51.522;10.702;2022-08-11T02:34:34;99879.00;;;13.09;88.02
45621;BME280;31345;51.522;10.702;2022-08-11T02:37:13;99871.31;;;13.06;89.55
45621;BME280;31345;51.522;10.702;2022-08-11T02:40:01;99872.56;;;12.86;90.18
45621;BME280;31345;51.522;10.702;2022-08-11T02:42:48;99859.84;;;13.07;90.23
45621;BME280;31345;51.522;10.702;2022-08-11T02:45:36;99867.19;;;13.30;88.31
45621;BME280;31345;51.522;10.702;2022-08-11T02:48:14;99861.50;;;13.23;87.71
45621;BME280;31345;51.522;10.702;2022-08-11T02:51:10;99868.44;;;13.24;87.83
45621;BME280;31345;51.522;10.702;2022-08-11T02:53:53;99873.94;;;13.34;87.79
45621;BME280;31345;51.522;10.702;2022-08-11T02:56:34;99866.81;;;13.36;87.54
45621;BME280;31345;51.522;10.702;2022-08-11T02:59:14;99871.44;;;13.45;85.74
45621;BME280;31345;51.522;10.702;2022-08-11T03:07:46;99867.19;;;13.02;88.45
45621;BME280;31345;51.522;10.702;2022-08-11T03:10:24;99870.78;;;12.87;89.22
45621;BME280;31345;51.522;10.702;2022-08-11T03:13:00;99867.22;;;13.15;87.10
45621;BME280;31345;51.522;10.702;2022-08-11T03:15:59;99864.75;;;13.27;85.52
45621;BME280;31345;51.522;10.702;2022-08-11T03:18:58;99868.03;;;13.03;87.84
45621;BME280;31345;51.522;10.702;2022-08-11T03:21:35;99875.38;;;12.83;89.04
45621;BME280;31345;51.522;10.702;2022-08-11T03:24:14;99879.88;;;12.66;89.62
45621;BME280;31345;51.522;10.702;2022-08-11T03:26:54;99871.34;;;12.92;89.14
45621;BME280;31345;51.522;10.702;2022-08-11T03:29:32;99876.84;;;13.02;88.80
45621;BME280;31345;51.522;10.702;2022-08-11T03:32:08;99875.53;;;12.94;89.06
45621;BME280;31345;51.522;10.702;2022-08-11T03:34:38;99879.56;;;13.00;88.31
45621;BME280;31345;51.522;10.702;2022-08-11T03:37:18;99872.72;;;12.97;89.41
45621;BME280;31345;51.522;10.702;2022-08-11T03:40:12;99877.44;;;12.63;92.08
45621;BME280;31345;51.522;10.702;2022-08-11T03:43:11;99884.22;;;12.53;92.13
45621;BME280;31345;51.522;10.702;2022-08-11T03:45:56;99881.09;;;12.75;90.51
45621;BME280;31345;51.522;10.702;2022-08-11T03:48:39;99889.06;;;12.59;91.67
45621;BME280;31345;51.522;10.702;2022-08-11T03:51:16;99876.50;;;12.79;89.64
45621;BME280;31345;51.522;10.702;2022-08-11T03:54:03;99880.91;;;12.49;91.73
45621;BME280;31345;51.522;10.702;2022-08-11T03:57:31;99872.97;;;12.65;89.61
45621;BME280;31345;51.522;10.702;2022-08-11T04:00:37;99884.66;;;12.45;91.79
45621;BME280;31345;51.522;10.702;2022-08-11T04:06:49;99882.72;;;12.49;92.97
45621;BME280;31345;51.522;10.702;2022-08-11T04:12:57;99881.84;;;12.77;90.65
45621;BME280;31345;51.522;10.702;2022-08-11T04:15:57;99895.25;;;12.58;91.96
45621;BME280;31345;51.522;10.702;2022-08-11T04:18:49;99883.53;;;12.49;93.18
45621;BME280;31345;51.522;10.702;2022-08-11T04:24:56;99890.03;;;12.72;90.60
45621;BME280;31345;51.522;10.702;2022-08-11T04:27:48;99892.56;;;12.74;90.92
45621;BME280;31345;51.522;10.702;2022-08-11T04:30:29;99897.50;;;12.50;92.37
45621;BME280;31345;51.522;10.702;2022-08-11T04:33:32;99891.53;;;12.48;93.06
45621;BME280;31345;51.522;10.702;2022-08-11T04:36:16;99888.53;;;12.54;92.67
45621;BME280;31345;51.522;10.702;2022-08-11T04:39:24;99887.88;;;12.36;95.24
45621;BME280;31345;51.522;10.702;2022-08-11T04:42:24;99878.41;;;12.62;93.76
45621;BME280;31345;51.522;10.702;2022-08-11T04:48:23;99877.72;;;12.73;93.50
45621;BME280;31345;51.522;10.702;2022-08-11T04:51:30;99881.19;;;12.88;92.72
45621;BME280;31345;51.522;10.702;2022-08-11T04:54:35;99880.78;;;12.94;92.16
45621;BME280;31345;51.522;10.702;2022-08-11T04:57:36;99878.84;;;12.69;95.08
45621;BME280;31345;51.522;10.702;2022-08-11T05:00:29;99878.03;;;12.68;96.11
45621;BME280;31345;51.522;10.702;2022-08-11T05:06:56;99882.97;;;12.88;93.25
45621;BME280;31345;51.522;10.702;2022-08-11T05:09:45;99884.28;;;12.95;93.63
45621;BME280;31345;51.522;10.702;2022-08-11T05:12:35;99881.38;;;13.00;93.65
45621;BME280;31345;51.522;10.702;2022-08-11T05:15:11;99884.44;;;13.06;93.34
45621;BME280;31345;51.522;10.702;2022-08-11T05:18:06;99881.56;;;13.24;92.56
45621;BME280;31345;51.522;10.702;2022-08-11T05:20:55;99886.56;;;13.42;92.96
45621;BME280;31345;51.522;10.702;2022-08-11T05:23:46;99880.38;;;13.70;91.42
45621;BME280;31345;51.522;10.702;2022-08-11T05:26:40;99882.91;;;13.72;91.63
45621;BME280;31345;51.522;10.702;2022-08-11T05:29:40;99885.03;;;13.93;90.45
45621;BME280;31345;51.522;10.702;2022-08-11T05:32:31;99878.50;;;13.98;90.02
45621;BME280;31345;51.522;10.702;2022-08-11T05:35:25;99878.72;;;14.08;91.03
45621;BME280;31345;51.522;10.702;2022-08-11T05:37:54;99870.53;;;14.39;87.58
45621;BME280;31345;51.522;10.702;2022-08-11T05:40:49;99877.75;;;14.61;87.40
45621;BME280;31345;51.522;10.702;2022-08-11T05:43:40;99882.91;;;14.76;88.19
45621;BME280;31345;51.522;10.702;2022-08-11T05:46:38;99877.59;;;15.02;87.91
45621;BME280;31345;51.522;10.702;2022-08-11T05:49:24;99875.63;;;15.41;84.60
45621;BME280;31345;51.522;10.702;2022-08-11T05:52:14;99885.16;;;15.55;88.39
45621;BME280;31345;51.522;10.702;2022-08-11T05:55:05;99877.38;;;15.90;85.15
45621;BME280;31345;51.522;10.702;2022-08-11T05:57:54;99873.56;;;16.05;84.19
45621;BME280;31345;51.522;10.702;2022-08-11T06:00:23;99881.28;;;16.31;80.94
45621;BME280;31345;51.522;10.702;2022-08-11T06:02:56;99871.22;;;16.59;80.92
45621;BME280;31345;51.522;10.702;2022-08-11T06:05:33;99883.47;;;16.61;85.96
45621;BME280;31345;51.522;10.702;2022-08-11T06:08:02;99877.22;;;16.73;84.58
45621;BME280;31345;51.522;10.702;2022-08-11T06:10:34;99883.28;;;17.08;82.61
45621;BME280;31345;51.522;10.702;2022-08-11T06:13:04;99879.84;;;17.29;80.95
45621;BME280;31345;51.522;10.702;2022-08-11T06:15:42;99882.53;;;17.61;83.18
45621;BME280;31345;51.522;10.702;2022-08-11T06:18:11;99873.38;;;17.66;79.42
45621;BME280;31345;51.522;10.702;2022-08-11T06:20:45;99875.44;;;17.83;82.07
45621;BME280;31345;51.522;10.702;2022-08-11T06:23:17;99868.41;;;18.15;76.11
45621;BME280;31345;51.522;10.702;2022-08-11T06:25:50;99871.75;;;18.48;78.15
45621;BME280;31345;51.522;10.702;2022-08-11T06:28:19;99875.19;;;18.60;79.61
45621;BME280;31345;51.522;10.702;2022-08-11T06:31:00;99878.84;;;18.79;76.04
45621;BME280;31345;51.522;10.702;2022-08-11T06:33:34;99882.38;;;18.89;75.71
45621;BME280;31345;51.522;10.702;2022-08-11T06:36:10;99874.88;;;19.14;73.46
45621;BME280;31345;51.522;10.702;2022-08-11T06:38:55;99873.38;;;19.32;73.50
45621;BME280;31345;51.522;10.702;2022-08-11T06:41:31;99875.19;;;19.61;74.54
45621;BME280;31345;51.522;10.702;2022-08-11T06:44:17;99882.59;;;19.77;74.59
45621;BME280;31345;51.522;10.702;2022-08-11T06:46:51;99881.59;;;19.98;73.01
45621;BME280;31345;51.522;10.702;2022-08-11T06:49:33;99880.84;;;20.15;73.38
45621;BME280;31345;51.522;10.702;2022-08-11T06:52:28;99872.69;;;20.27;70.79
45621;BME280;31345;51.522;10.702;2022-08-11T06:54:59;99877.13;;;20.36;66.70
45621;BME280;31345;51.522;10.702;2022-08-11T06:57:33;99874.91;;;20.41;66.96
45621;BME280;31345;51.522;10.702;2022-08-11T07:00:19;99877.69;;;20.78;68.25
45621;BME280;31345;51.522;10.702;2022-08-11T07:03:00;99872.56;;;20.66;66.53
45621;BME280;31345;51.522;10.702;2022-08-11T07:05:39;99873.59;;;20.83;64.39
45621;BME280;31345;51.522;10.702;2022-08-11T07:12:05;99870.84;;;21.21;64.61
45621;BME280;31345;51.522;10.702;2022-08-11T07:15:02;99866.66;;;21.19;61.85
45621;BME280;31345;51.522;10.702;2022-08-11T07:17:51;99865.47;;;21.50;61.62
45621;BME280;31345;51.522;10.702;2022-08-11T07:20:37;99865.25;;;21.61;60.48
45621;BME280;31345;51.522;10.702;2022-08-11T07:23:24;99868.88;;;21.86;60.36
45621;BME280;31345;51.522;10.702;2022-08-11T07:26:11;99875.09;;;21.69;61.79
45621;BME280;31345;51.522;10.702;2022-08-11T07:28:58;99867.50;;;22.27;61.68
45621;BME280;31345;51.522;10.702;2022-08-11T07:31:32;99868.69;;;22.68;60.92
45621;BME280;31345;51.522;10.702;2022-08-11T07:34:12;99856.25;;;22.85;59.66
45621;BME280;31345;51.522;10.702;2022-08-11T07:36:50;99861.22;;;22.80;60.75
45621;BME280;31345;51.522;10.702;2022-08-11T07:39:20;99865.63;;;22.97;55.04
45621;BME280;31345;51.522;10.702;2022-08-11T07:41:50;99856.69;;;23.23;56.75
45621;BME280;31345;51.522;10.702;2022-08-11T07:44:19;99861.38;;;23.46;58.32
45621;BME280;31345;51.522;10.702;2022-08-11T07:46:48;99858.69;;;23.54;58.44
45621;BME280;31345;51.522;10.702;2022-08-11T07:49:36;99865.19;;;23.85;57.42
45621;BME280;31345;51.522;10.702;2022-08-11T07:52:24;99858.03;;;23.77;57.45
45621;BME280;31345;51.522;10.702;2022-08-11T07:54:58;99850.22;;;23.51;53.28
45621;BME280;31345;51.522;10.702;2022-08-11T07:57:27;99850.03;;;23.61;54.62
45621;BME280;31345;51.522;10.702;2022-08-11T08:00:13;99847.34;;;23.44;52.97
45621;BME280;31345;51.522;10.702;2022-08-11T08:03:00;99861.34;;;23.79;55.13
45621;BME280;31345;51.522;10.702;2022-08-11T08:05:46;99858.16;;;24.09;52.67
45621;BME280;31345;51.522;10.702;2022-08-11T08:08:34;99845.28;;;24.21;48.50
45621;BME280;31345;51.522;10.702;2022-08-11T08:11:20;99851.13;;;24.56;50.42
45621;BME280;31345;51.522;10.702;2022-08-11T08:14:07;99851.66;;;24.92;49.15
45621;BME280;31345;51.522;10.702;2022-08-11T08:16:53;99848.69;;;25.10;48.41
45621;BME280;31345;51.522;10.702;2022-08-11T08:19:42;99846.25;;;25.00;46.82
45621;BME280;31345;51.522;10.702;2022-08-11T08:22:15;99851.72;;;25.07;47.23
45621;BME280;31345;51.522;10.702;2022-08-11T08:24:45;99843.09;;;25.20;45.10
45621;BME280;31345;51.522;10.702;2022-08-11T08:27:15;99840.63;;;25.42;45.83
45621;BME280;31345;51.522;10.702;2022-08-11T08:29:44;99841.91;;;25.46;46.89
45621;BME280;31345;51.522;10.702;2022-08-11T08:32:30;99844.25;;;25.49;47.03
45621;BME280;31345;51.522;10.702;2022-08-11T08:35:01;99837.75;;;25.43;46.64
45621;BME280;31345;51.522;10.702;2022-08-11T08:37:30;99838.94;;;25.64;46.48
45621;BME280;31345;51.522;10.702;2022-08-11T08:40:03;99833.69;;;25.71;43.57
45621;BME280;31345;51.522;10.702;2022-08-11T08:42:38;99833.31;;;25.74;45.07
45621;BME280;31345;51.522;10.702;2022-08-11T08:45:08;99835.16;;;25.89;45.41
45621;BME280;31345;51.522;10.702;2022-08-11T08:47:40;99837.84;;;25.89;45.72
45621;BME280;31345;51.522;10.702;2022-08-11T08:50:10;99835.19;;;26.19;42.60
45621;BME280;31345;51.522;10.702;2022-08-11T08:52:43;99825.03;;;26.29;44.24
45621;BME280;31345;51.522;10.702;2022-08-11T08:55:16;99822.91;;;26.24;42.23
45621;BME280;31345;51.522;10.702;2022-08-11T08:57:47;99821.69;;;26.42;44.16
45621;BME280;31345;51.522;10.702;2022-08-11T09:00:16;99822.06;;;26.54;43.62
45621;BME280;31345;51.522;10.702;2022-08-11T09:02:44;99823.44;;;26.50;43.13
45621;BME280;31345;51.522;10.702;2022-08-11T09:05:19;99819.94;;;26.86;41.20
45621;BME280;31345;51.522;10.702;2022-08-11T09:07:49;99823.34;;;27.17;40.23
45621;BME280;31345;51.522;10.702;2022-08-11T09:10:21;99826.03;;;27.17;40.64
45621;BME280;31345;51.522;10.702;2022-08-11T09:12:49;99815.78;;;27.06;42.03
45621;BME280;31345;51.522;10.702;2022-08-11T09:15:18;99811.25;;;27.28;39.54
45621;BME280;31345;51.522;10.702;2022-08-11T09:17:49;99818.22;;;27.22;37.81
45621;BME280;31345;51.522;10.702;2022-08-11T09:20:20;99810.00;;;27.52;41.60
45621;BME280;31345;51.522;10.702;2022-08-11T09:22:50;99813.81;;;27.36;39.73
45621;BME280;31345;51.522;10.702;2022-08-11T09:25:37;99818.16;;;27.16;39.36
45621;BME280;31345;51.522;10.702;2022-08-11T09:28:22;99809.78;;;27.25;38.58
45621;BME280;31345;51.522;10.702;2022-08-11T09:30:51;99804.75;;;27.16;39.42
45621;BME280;31345;51.522;10.702;2022-08-11T09:33:21;99804.41;;;27.47;38.62
45621;BME280;31345;51.522;10.702;2022-08-11T09:35:51;99807.16;;;27.32;37.94
45621;BME280;31345;51.522;10.702;2022-08-11T09:38:23;99807.09;;;27.25;39.34
45621;BME280;31345;51.522;10.702;2022-08-11T09:41:12;99800.44;;;27.72;38.18
45621;BME280;31345;51.522;10.702;2022-08-11T09:43:43;99807.59;;;27.86;38.86
45621;BME280;31345;51.522;10.702;2022-08-11T09:46:31;99801.41;;;27.93;38.11
45621;BME280;31345;51.522;10.702;2022-08-11T09:48:59;99794.72;;;28.17;37.20
45621;BME280;31345;51.522;10.702;2022-08-11T09:51:30;99790.69;;;27.99;36.25
45621;BME280;31345;51.522;10.702;2022-08-11T09:53:59;99792.97;;;28.02;38.52
45621;BME280;31345;51.522;10.702;2022-08-11T09:56:30;99789.19;;;28.32;34.66
45621;BME280;31345;51.522;10.702;2022-08-11T09:59:17;99777.19;;;28.28;36.10
45621;BME280;31345;51.522;10.702;2022-08-11T10:01:47;99777.88;;;27.95;36.35
45621;BME280;31345;51.522;10.702;2022-08-11T10:04:17;99770.31;;;28.12;35.83
45621;BME280;31345;51.522;10.702;2022-08-11T10:06:49;99766.06;;;28.45;37.28
45621;BME280;31345;51.522;10.702;2022-08-11T10:09:37;99767.09;;;28.37;35.66
45621;BME280;31345;51.522;10.702;2022-08-11T10:12:09;99756.75;;;28.40;34.82
45621;BME280;31345;51.522;10.702;2022-08-11T10:14:42;99763.47;;;28.65;35.47
45621;BME280;31345;51.522;10.702;2022-08-11T10:17:30;99755.97;;;28.53;36.28
45621;BME280;31345;51.522;10.702;2022-08-11T10:19:59;99753.56;;;28.86;36.37
45621;BME280;31345;51.522;10.702;2022-08-11T10:22:29;99754.78;;;28.76;33.86
45621;BME280;31345;51.522;10.702;2022-08-11T10:25:15;99751.66;;;28.79;35.38
45621;BME280;31345;51.522;10.702;2022-08-11T10:28:07;99748.78;;;28.74;35.88
45621;BME280;31345;51.522;10.702;2022-08-11T10:30:36;99743.19;;;28.76;34.45
45621;BME280;31345;51.522;10.702;2022-08-11T10:33:33;99756.66;;;28.76;35.64
45621;BME280;31345;51.522;10.702;2022-08-11T10:36:19;99752.31;;;28.19;36.15
45621;BME280;31345;51.522;10.702;2022-08-11T10:38:46;99742.13;;;28.57;33.70
45621;BME280;31345;51.522;10.702;2022-08-11T10:41:17;99743.63;;;28.86;34.07
45621;BME280;31345;51.522;10.702;2022-08-11T10:44:08;99726.47;;;29.14;32.40
45621;BME280;31345;51.522;10.702;2022-08-11T10:46:37;99731.59;;;28.75;34.80
45621;BME280;31345;51.522;10.702;2022-08-11T10:49:24;99734.34;;;29.16;35.41
45621;BME280;31345;51.522;10.702;2022-08-11T10:51:55;99735.56;;;28.86;34.62
45621;BME280;31345;51.522;10.702;2022-08-11T10:54:41;99738.84;;;28.82;35.12
45621;BME280;31345;51.522;10.702;2022-08-11T10:57:27;99735.50;;;28.59;36.21
45621;BME280;31345;51.522;10.702;2022-08-11T11:00:15;99732.66;;;28.95;34.43
45621;BME280;31345;51.522;10.702;2022-08-11T11:02:45;99733.03;;;29.45;35.57
45621;BME280;31345;51.522;10.702;2022-08-11T11:05:21;99726.69;;;29.13;33.08
45621;BME280;31345;51.522;10.702;2022-08-11T11:07:54;99720.25;;;28.93;35.07
45621;BME280;31345;51.522;10.702;2022-08-11T11:10:25;99718.38;;;28.74;34.66
45621;BME280;31345;51.522;10.702;2022-08-11T11:12:55;99719.22;;;29.22;36.30
45621;BME280;31345;51.522;10.702;2022-08-11T11:15:45;99717.09;;;29.37;34.19
45621;BME280;31345;51.522;10.702;2022-08-11T11:18:33;99716.47;;;29.49;34.67
45621;BME280;31345;51.522;10.702;2022-08-11T11:21:05;99710.50;;;29.40;34.01
45621;BME280;31345;51.522;10.702;2022-08-11T11:23:39;99710.91;;;29.43;34.96
45621;BME280;31345;51.522;10.702;2022-08-11T11:26:26;99703.59;;;29.64;36.11
45621;BME280;31345;51.522;10.702;2022-08-11T11:29:08;99708.44;;;29.35;35.10
45621;BME280;31345;51.522;10.702;2022-08-11T11:31:51;99708.66;;;29.20;35.68
45621;BME280;31345;51.522;10.702;2022-08-11T11:34:42;99704.06;;;28.87;34.26
45621;BME280;31345;51.522;10.702;2022-08-11T11:37:18;99707.19;;;29.31;34.79
45621;BME280;31345;51.522;10.702;2022-08-11T11:39:47;99708.66;;;28.93;33.41
45621;BME280;31345;51.522;10.702;2022-08-11T11:42:15;99702.00;;;28.96;38.12
45621;BME280;31345;51.522;10.702;2022-08-11T11:44:44;99702.19;;;29.35;34.56
45621;BME280;31345;51.522;10.702;2022-08-11T11:47:16;99691.47;;;28.74;34.66
45621;BME280;31345;51.522;10.702;2022-08-11T11:49:48;99690.41;;;29.29;34.84
45621;BME280;31345;51.522;10.702;2022-08-11T11:52:18;99689.13;;;29.45;35.03
45621;BME280;31345;51.522;10.702;2022-08-11T11:54:51;99683.56;;;29.33;33.31
45621;BME280;31345;51.522;10.702;2022-08-11T11:57:20;99679.03;;;29.27;34.45
45621;BME280;31345;51.522;10.702;2022-08-11T12:00:08;99677.78;;;29.02;34.69
45621;BME280;31345;51.522;10.702;2022-08-11T12:02:57;99673.38;;;29.49;32.90
45621;BME280;31345;51.522;10.702;2022-08-11T12:05:25;99672.97;;;29.52;34.50
45621;BME280;31345;51.522;10.702;2022-08-11T12:07:55;99678.16;;;29.47;35.90
45621;BME280;31345;51.522;10.702;2022-08-11T12:10:47;99667.63;;;29.38;33.76
45621;BME280;31345;51.522;10.702;2022-08-11T12:13:16;99667.41;;;29.40;33.76
45621;BME280;31345;51.522;10.702;2022-08-11T12:16:04;99662.47;;;29.30;35.83
45621;BME280;31345;51.522;10.702;2022-08-11T12:18:33;99669.56;;;29.77;33.69
45621;BME280;31345;51.522;10.702;2022-08-11T12:21:03;99659.28;;;29.53;34.02
45621;BME280;31345;51.522;10.702;2022-08-11T12:23:33;99651.38;;;29.58;33.66
45621;BME280;31345;51.522;10.702;2022-08-11T12:26:19;99654.63;;;29.81;33.13
45621;BME280;31345;51.522;10.702;2022-08-11T12:29:20;99652.91;;;29.93;33.30
45621;BME280;31345;51.522;10.702;2022-08-11T12:31:51;99655.50;;;29.68;32.43
45621;BME280;31345;51.522;10.702;2022-08-11T12:34:20;99655.50;;;29.61;31.85
45621;BME280;31345;51.522;10.702;2022-08-11T12:36:54;99660.41;;;29.91;33.01
45621;BME280;31345;51.522;10.702;2022-08-11T12:39:25;99651.16;;;30.13;31.49
45621;BME280;31345;51.522;10.702;2022-08-11T12:42:09;99656.81;;;29.98;33.80
45621;BME280;31345;51.522;10.702;2022-08-11T12:44:56;99648.84;;;29.77;33.09
45621;BME280;31345;51.522;10.702;2022-08-11T12:47:46;99634.63;;;29.43;32.04
45621;BME280;31345;51.522;10.702;2022-08-11T12:50:35;99639.50;;;29.80;33.06
45621;BME280;31345;51.522;10.702;2022-08-11T12:53:24;99633.19;;;29.47;32.97
45621;BME280;31345;51.522;10.702;2022-08-11T12:55:54;99618.69;;;29.48;32.52
45621;BME280;31345;51.522;10.702;2022-08-11T12:58:41;99617.53;;;29.83;33.87
45621;BME280;31345;51.522;10.702;2022-08-11T13:01:10;99605.41;;;29.99;31.39
45621;BME280;31345;51.522;10.702;2022-08-11T13:03:56;99607.53;;;29.90;31.51
45621;BME280;31345;51.522;10.702;2022-08-11T13:06:44;99598.66;;;29.76;32.50
45621;BME280;31345;51.522;10.702;2022-08-11T13:09:12;99604.13;;;29.56;32.77
45621;BME280;31345;51.522;10.702;2022-08-11T13:11:40;99594.34;;;30.07;33.14
45621;BME280;31345;51.522;10.702;2022-08-11T13:14:26;99593.50;;;30.14;31.69
45621;BME280;31345;51.522;10.702;2022-08-11T13:16:54;99600.56;;;30.40;32.25
45621;BME280;31345;51.522;10.702;2022-08-11T13:19:41;99598.00;;;30.52;32.25
45621;BME280;31345;51.522;10.702;2022-08-11T13:22:11;99595.09;;;30.54;31.06
45621;BME280;31345;51.522;10.702;2022-08-11T13:24:39;99595.97;;;30.47;30.05
45621;BME280;31345;51.522;10.702;2022-08-11T13:27:07;99592.41;;;30.54;31.38
45621;BME280;31345;51.522;10.702;2022-08-11T13:29:40;99594.53;;;30.45;30.94
45621;BME280;31345;51.522;10.702;2022-08-11T13:32:13;99595.41;;;30.64;31.09
45621;BME280;31345;51.522;10.702;2022-08-11T13:34:45;99596.38;;;30.70;29.53
45621;BME280;31345;51.522;10.702;2022-08-11T13:37:15;99589.56;;;30.42;29.64
45621;BME280;31345;51.522;10.702;2022-08-11T13:39:48;99589.50;;;30.74;30.82
45621;BME280;31345;51.522;10.702;2022-08-11T13:42:19;99584.03;;;30.62;31.13
45621;BME280;31345;51.522;10.702;2022-08-11T13:44:47;99584.66;;;30.83;30.53
45621;BME280;31345;51.522;10.702;2022-08-11T13:47:15;99572.25;;;30.56;29.89
45621;BME280;31345;51.522;10.702;2022-08-11T13:49:44;99577.00;;;30.80;29.29
45621;BME280;31345;51.522;10.702;2022-08-11T13:52:18;99574.16;;;30.49;30.91
45621;BME280;31345;51.522;10.702;2022-08-11T13:54:47;99571.31;;;30.88;30.30
45621;BME280;31345;51.522;10.702;2022-08-11T13:57:17;99574.31;;;30.98;30.11
45621;BME280;31345;51.522;10.702;2022-08-11T13:59:46;99580.72;;;30.60;30.06
45621;BME280;31345;51.522;10.702;2022-08-11T14:02:25;99571.91;;;30.90;30.33
45621;BME280;31345;51.522;10.702;2022-08-11T14:04:56;99569.44;;;30.89;29.09
45621;BME280;31345;51.522;10.702;2022-08-11T14:07:32;99566.50;;;30.71;26.80
45621;BME280;31345;51.522;10.702;2022-08-11T14:10:02;99567.00;;;30.62;28.45
45621;BME280;31345;51.522;10.702;2022-08-11T14:12:33;99562.88;;;30.78;28.72
45621;BME280;31345;51.522;10.702;2022-08-11T14:15:20;99556.31;;;30.92;28.91
45621;BME280;31345;51.522;10.702;2022-08-11T14:17:52;99556.19;;;31.06;27.63
45621;BME280;31345;51.522;10.702;2022-08-11T14:20:21;99558.78;;;30.94;27.77
45621;BME280;31345;51.522;10.702;2022-08-11T14:23:12;99547.09;;;31.00;28.01
45621;BME280;31345;51.522;10.702;2022-08-11T14:25:40;99551.44;;;30.82;29.77
45621;BME280;31345;51.522;10.702;2022-08-11T14:28:30;99551.25;;;31.03;28.83
45621;BME280;31345;51.522;10.702;2022-08-11T14:31:01;99546.53;;;31.17;27.04
45621;BME280;31345;51.522;10.702;2022-08-11T14:33:31;99541.69;;;31.00;28.32
45621;BME280;31345;51.522;10.702;2022-08-11T14:36:01;99535.19;;;31.08;28.25
45621;BME280;31345;51.522;10.702;2022-08-11T14:38:33;99539.41;;;30.59;28.14
45621;BME280;31345;51.522;10.702;2022-08-11T14:41:02;99529.84;;;30.82;28.29